sensor_id;sensor_type;location;lat;lon;timestamp;pressure;altitude;pressure_sealevel;temperature;humidity
43934;BME280;59081;42.706;23.306;2022-11-03T00:01:37;95751.47;;;15.87;41.45
43934;BME280;59081;42.706;23.306;2022-11-03T00:04:05;95726.88;;;15.76;41.52
43934;BME280;59081;42.706;23.306;2022-11-03T00:06:31;95793.47;;;15.98;41.90
43934;BME280;59081;42.706;23.306;2022-11-03T00:08:59;95630.25;;;14.91;42.11
43934;BME280;59081;42.706;23.306;2022-11-03T00:11:25;95692.63;;;15.39;42.00
43934;BME280;59081;42.706;23.306;2022-11-03T00:13:51;95675.13;;;15.29;42.28
43934;BME280;59081;42.706;23.306;2022-11-03T00:16:16;95740.28;;;15.69;42.12
43934;BME280;59081;42.706;23.306;2022-11-03T00:18:42;95796.91;;;16.11;42.32
43934;BME280;59081;42.706;23.306;2022-11-03T00:21:09;95619.78;;;14.95;42.36
43934;BME280;59081;42.706;23.306;2022-11-03T00:23:38;95639.41;;;15.01;42.62
43934;BME280;59081;42.706;23.306;2022-11-03T00:26:11;95759.44;;;15.76;42.72
43934;BME280;59081;42.706;23.306;2022-11-03T00:28:38;95795.47;;;15.97;43.01
43934;BME280;59081;42.706;23.306;2022-11-03T00:31:18;95800.25;;;15.97;43.22
43934;BME280;59081;42.706;23.306;2022-11-03T00:33:44;95671.16;;;15.00;43.70
43934;BME280;59081;42.706;23.306;2022-11-03T00:36:20;95758.38;;;15.51;43.76
43934;BME280;59081;42.706;23.306;2022-11-03T00:38:46;95756.19;;;15.46;43.82
43934;BME280;59081;42.706;23.306;2022-11-03T00:41:12;95676.38;;;14.76;44.03
43934;BME280;59081;42.706;23.306;2022-11-03T00:43:38;95673.16;;;14.77;44.28
43934;BME280;59081;42.706;23.306;2022-11-03T00:46:06;95666.16;;;14.63;44.57
43934;BME280;59081;42.706;23.306;2022-11-03T00:48:32;95595.41;;;14.15;44.67
43934;BME280;59081;42.706;23.306;2022-11-03T00:53:29;95633.22;;;14.31;45.04
43934;BME280;59081;42.706;23.306;2022-11-03T00:55:57;95719.28;;;14.84;45.00
43934;BME280;59081;42.706;23.306;2022-11-03T00:58:23;95641.75;;;14.37;45.16
43934;BME280;59081;42.706;23.306;2022-11-03T01:00:48;95689.75;;;14.68;45.21
43934;BME280;59081;42.706;23.306;2022-11-03T01:03:14;95692.06;;;14.70;46.18
43934;BME280;59081;42.706;23.306;2022-11-03T01:05:40;95694.13;;;14.78;47.21
43934;BME280;59081;42.706;23.306;2022-11-03T01:08:25;95698.78;;;14.81;47.17
43934;BME280;59081;42.706;23.306;2022-11-03T01:10:55;95603.31;;;14.26;47.80
43934;BME280;59081;42.706;23.306;2022-11-03T01:13:46;95801.25;;;15.50;48.63
43934;BME280;59081;42.706;23.306;2022-11-03T01:16:12;95732.19;;;15.00;49.46
43934;BME280;59081;42.706;23.306;2022-11-03T01:18:37;95579.34;;;14.10;49.33
43934;BME280;59081;42.706;23.306;2022-11-03T01:21:03;95762.59;;;15.34;49.13
43934;BME280;59081;42.706;23.306;2022-11-03T01:23:28;95688.94;;;14.89;49.63
43934;BME280;59081;42.706;23.306;2022-11-03T01:25:54;95796.78;;;15.53;50.43
43934;BME280;59081;42.706;23.306;2022-11-03T01:28:19;95619.19;;;14.25;51.30
43934;BME280;59081;42.706;23.306;2022-11-03T01:30:45;95653.56;;;14.50;51.06
43934;BME280;59081;42.706;23.306;2022-11-03T01:33:11;95640.06;;;14.39;51.19
43934;BME280;59081;42.706;23.306;2022-11-03T01:35:39;95635.91;;;14.22;52.10
43934;BME280;59081;42.706;23.306;2022-11-03T01:38:04;95798.00;;;15.21;52.40
43934;BME280;59081;42.706;23.306;2022-11-03T01:40:30;95739.41;;;14.97;52.30
43934;BME280;59081;42.706;23.306;2022-11-03T01:43:14;95681.88;;;14.45;52.43
43934;BME280;59081;42.706;23.306;2022-11-03T01:45:39;95624.84;;;14.00;52.74
43934;BME280;59081;42.706;23.306;2022-11-03T01:48:07;95587.91;;;13.81;52.71
43934;BME280;59081;42.706;23.306;2022-11-03T01:50:33;95801.88;;;15.23;52.68
43934;BME280;59081;42.706;23.306;2022-11-03T01:52:58;95680.13;;;14.25;52.93
43934;BME280;59081;42.706;23.306;2022-11-03T01:55:35;95687.63;;;14.38;53.09
43934;BME280;59081;42.706;23.306;2022-11-03T02:00:40;95726.03;;;14.61;53.07
43934;BME280;59081;42.706;23.306;2022-11-03T02:03:07;95721.66;;;14.51;53.35
43934;BME280;59081;42.706;23.306;2022-11-03T02:05:33;95784.03;;;14.90;53.61
43934;BME280;59081;42.706;23.306;2022-11-03T02:08:18;95696.53;;;14.33;53.61
43934;BME280;59081;42.706;23.306;2022-11-03T02:10:49;95699.53;;;14.25;53.82
43934;BME280;59081;42.706;23.306;2022-11-03T02:13:19;95762.84;;;14.61;54.16
43934;BME280;59081;42.706;23.306;2022-11-03T02:15:51;95707.06;;;14.25;54.04
43934;BME280;59081;42.706;23.306;2022-11-03T02:18:20;95629.22;;;13.76;54.08
43934;BME280;59081;42.706;23.306;2022-11-03T02:21:38;95617.31;;;13.41;54.68
43934;BME280;59081;42.706;23.306;2022-11-03T02:23:46;95813.16;;;14.73;54.63
43934;BME280;59081;42.706;23.306;2022-11-03T02:26:14;95610.91;;;13.44;54.66
43934;BME280;59081;42.706;23.306;2022-11-03T02:28:41;95653.28;;;13.53;55.27
43934;BME280;59081;42.706;23.306;2022-11-03T02:34:07;95597.94;;;13.03;55.88
43934;BME280;59081;42.706;23.306;2022-11-03T02:39:13;95663.91;;;13.55;55.70
43934;BME280;59081;42.706;23.306;2022-11-03T02:41:39;95673.75;;;13.56;55.43
43934;BME280;59081;42.706;23.306;2022-11-03T02:44:12;95616.03;;;13.33;54.82
43934;BME280;59081;42.706;23.306;2022-11-03T02:46:41;95765.91;;;14.29;55.03
43934;BME280;59081;42.706;23.306;2022-11-03T02:49:07;95638.25;;;13.42;54.48
43934;BME280;59081;42.706;23.306;2022-11-03T02:51:33;95657.03;;;13.59;54.55
43934;BME280;59081;42.706;23.306;2022-11-03T02:54:20;95695.41;;;13.96;54.49
43934;BME280;59081;42.706;23.306;2022-11-03T02:57:07;95809.31;;;14.70;54.22
43934;BME280;59081;42.706;23.306;2022-11-03T02:59:46;95657.81;;;13.60;54.29
43934;BME280;59081;42.706;23.306;2022-11-03T03:02:18;95686.47;;;13.79;54.46
43934;BME280;59081;42.706;23.306;2022-11-03T03:04:54;95805.22;;;14.62;54.42
43934;BME280;59081;42.706;23.306;2022-11-03T03:07:31;95778.09;;;14.32;54.43
43934;BME280;59081;42.706;23.306;2022-11-03T03:12:31;95635.59;;;13.38;54.71
43934;BME280;59081;42.706;23.306;2022-11-03T03:14:58;95649.41;;;13.51;54.52
43934;BME280;59081;42.706;23.306;2022-11-03T03:17:29;95814.63;;;14.65;54.47
43934;BME280;59081;42.706;23.306;2022-11-03T03:23:06;95769.66;;;14.48;54.07
43934;BME280;59081;42.706;23.306;2022-11-03T03:25:45;95686.56;;;13.88;54.37
43934;BME280;59081;42.706;23.306;2022-11-03T03:28:20;95789.84;;;14.48;54.40
43934;BME280;59081;42.706;23.306;2022-11-03T03:30:51;95811.63;;;14.72;53.84
43934;BME280;59081;42.706;23.306;2022-11-03T03:33:18;95736.69;;;14.15;54.18
43934;BME280;59081;42.706;23.306;2022-11-03T03:35:47;95729.69;;;14.23;53.78
43934;BME280;59081;42.706;23.306;2022-11-03T03:38:18;95808.44;;;14.60;54.42
43934;BME280;59081;42.706;23.306;2022-11-03T03:40:49;95688.78;;;13.80;54.13
43934;BME280;59081;42.706;23.306;2022-11-03T03:43:16;95635.38;;;13.45;53.88
43934;BME280;59081;42.706;23.306;2022-11-03T03:45:43;95619.22;;;13.44;53.75
43934;BME280;59081;42.706;23.306;2022-11-03T03:48:11;95820.97;;;14.65;54.34
43934;BME280;59081;42.706;23.306;2022-11-03T03:50:38;95805.16;;;14.53;54.12
43934;BME280;59081;42.706;23.306;2022-11-03T03:53:10;95687.31;;;13.88;54.25
43934;BME280;59081;42.706;23.306;2022-11-03T03:55:42;95699.50;;;13.91;54.51
43934;BME280;59081;42.706;23.306;2022-11-03T03:58:11;95767.91;;;14.41;54.24
43934;BME280;59081;42.706;23.306;2022-11-03T04:00:38;95772.91;;;14.34;54.75
43934;BME280;59081;42.706;23.306;2022-11-03T04:03:23;95739.28;;;13.72;56.08
43934;BME280;59081;42.706;23.306;2022-11-03T04:05:50;95678.63;;;13.39;56.46
43934;BME280;59081;42.706;23.306;2022-11-03T04:08:16;95821.91;;;14.24;56.51
43934;BME280;59081;42.706;23.306;2022-11-03T04:10:43;95729.88;;;13.56;57.23
43934;BME280;59081;42.706;23.306;2022-11-03T04:13:27;95814.28;;;14.15;57.16
43934;BME280;59081;42.706;23.306;2022-11-03T04:16:12;95706.41;;;13.23;57.68
43934;BME280;59081;42.706;23.306;2022-11-03T04:18:56;95773.72;;;13.71;57.90
43934;BME280;59081;42.706;23.306;2022-11-03T04:21:40;95820.91;;;13.92;58.48
43934;BME280;59081;42.706;23.306;2022-11-03T04:24:24;95693.47;;;13.20;58.14
43934;BME280;59081;42.706;23.306;2022-11-03T04:26:49;95783.47;;;13.88;58.23
43934;BME280;59081;42.706;23.306;2022-11-03T04:29:15;95680.84;;;13.19;58.02
43934;BME280;59081;42.706;23.306;2022-11-03T04:31:41;95712.84;;;13.45;57.71
43934;BME280;59081;42.706;23.306;2022-11-03T04:34:10;95582.59;;;12.64;57.48
43934;BME280;59081;42.706;23.306;2022-11-03T04:36:36;95660.59;;;13.22;57.68
43934;BME280;59081;42.706;23.306;2022-11-03T04:39:14;95684.38;;;13.19;57.87
43934;BME280;59081;42.706;23.306;2022-11-03T04:41:41;95722.28;;;13.48;57.77
43934;BME280;59081;42.706;23.306;2022-11-03T04:44:13;95775.75;;;13.83;58.03
43934;BME280;59081;42.706;23.306;2022-11-03T04:46:40;95772.63;;;13.81;57.71
43934;BME280;59081;42.706;23.306;2022-11-03T04:49:10;95738.53;;;13.58;58.16
43934;BME280;59081;42.706;23.306;2022-11-03T04:51:36;95731.53;;;13.54;58.12
43934;BME280;59081;42.706;23.306;2022-11-03T04:54:18;95741.84;;;13.53;58.07
43934;BME280;59081;42.706;23.306;2022-11-03T04:56:45;95677.50;;;13.11;58.11
43934;BME280;59081;42.706;23.306;2022-11-03T04:59:12;95651.50;;;12.96;58.23
43934;BME280;59081;42.706;23.306;2022-11-03T05:01:38;95747.94;;;13.48;58.85
43934;BME280;59081;42.706;23.306;2022-11-03T05:04:11;95712.81;;;13.20;58.77
43934;BME280;59081;42.706;23.306;2022-11-03T05:06:37;95823.81;;;13.76;59.31
43934;BME280;59081;42.706;23.306;2022-11-03T05:09:18;95754.91;;;13.28;59.46
43934;BME280;59081;42.706;23.306;2022-11-03T05:11:47;95782.34;;;13.35;59.69
43934;BME280;59081;42.706;23.306;2022-11-03T05:14:19;95677.34;;;12.77;59.32
43934;BME280;59081;42.706;23.306;2022-11-03T05:16:46;95728.81;;;13.00;59.39
43934;BME280;59081;42.706;23.306;2022-11-03T05:19:25;95705.34;;;12.92;59.56
43934;BME280;59081;42.706;23.306;2022-11-03T05:21:51;95805.31;;;13.61;59.36
43934;BME280;59081;42.706;23.306;2022-11-03T05:24:20;95736.97;;;13.32;63.90
43934;BME280;59081;42.706;23.306;2022-11-03T05:26:50;95756.75;;;14.19;73.27
43934;BME280;59081;42.706;23.306;2022-11-03T05:29:22;95736.00;;;14.71;71.79
43934;BME280;59081;42.706;23.306;2022-11-03T05:31:50;95764.38;;;15.50;66.23
43934;BME280;59081;42.706;23.306;2022-11-03T05:34:45;95706.00;;;15.62;63.96
43934;BME280;59081;42.706;23.306;2022-11-03T05:37:22;95724.16;;;15.94;54.43
43934;BME280;59081;42.706;23.306;2022-11-03T05:39:49;95780.22;;;16.11;51.46
43934;BME280;59081;42.706;23.306;2022-11-03T05:44:47;95721.84;;;15.22;51.90
43934;BME280;59081;42.706;23.306;2022-11-03T05:47:26;95852.69;;;15.86;52.42
43934;BME280;59081;42.706;23.306;2022-11-03T05:49:59;95741.31;;;14.66;53.50
43934;BME280;59081;42.706;23.306;2022-11-03T05:52:27;95805.53;;;14.98;53.79
43934;BME280;59081;42.706;23.306;2022-11-03T05:54:55;95747.28;;;14.29;54.31
43934;BME280;59081;42.706;23.306;2022-11-03T05:57:22;95744.38;;;13.99;55.05
43934;BME280;59081;42.706;23.306;2022-11-03T05:59:50;95835.41;;;14.35;55.81
43934;BME280;59081;42.706;23.306;2022-11-03T06:04:47;95755.72;;;13.66;56.78
43934;BME280;59081;42.706;23.306;2022-11-03T06:09:42;95668.44;;;12.98;56.82
43934;BME280;59081;42.706;23.306;2022-11-03T06:12:13;95671.63;;;13.09;56.59
43934;BME280;59081;42.706;23.306;2022-11-03T06:14:42;95784.03;;;13.96;56.35
43934;BME280;59081;42.706;23.306;2022-11-03T06:17:21;95855.03;;;14.53;56.32
43934;BME280;59081;42.706;23.306;2022-11-03T06:19:51;95713.81;;;13.77;55.92
43934;BME280;59081;42.706;23.306;2022-11-03T06:24:46;95832.38;;;14.67;55.34
43934;BME280;59081;42.706;23.306;2022-11-03T06:27:14;95694.53;;;13.99;66.36
43934;BME280;59081;42.706;23.306;2022-11-03T06:29:41;95819.13;;;15.49;69.54
43934;BME280;59081;42.706;23.306;2022-11-03T06:32:11;95805.47;;;15.33;54.12
43934;BME280;59081;42.706;23.306;2022-11-03T06:34:52;95740.81;;;15.02;52.74
43934;BME280;59081;42.706;23.306;2022-11-03T06:37:23;95895.19;;;15.95;52.96
43934;BME280;59081;42.706;23.306;2022-11-03T06:39:51;95796.69;;;15.35;52.56
43934;BME280;59081;42.706;23.306;2022-11-03T06:42:20;95834.25;;;15.48;52.95
43934;BME280;59081;42.706;23.306;2022-11-03T06:44:50;95793.22;;;15.00;53.33
43934;BME280;59081;42.706;23.306;2022-11-03T06:47:21;95844.75;;;15.10;54.26
43934;BME280;59081;42.706;23.306;2022-11-03T06:49:52;95923.97;;;15.45;54.62
43934;BME280;59081;42.706;23.306;2022-11-03T06:54:49;95838.25;;;14.69;55.98
43934;BME280;59081;42.706;23.306;2022-11-03T06:57:18;95864.94;;;14.88;56.37
43934;BME280;59081;42.706;23.306;2022-11-03T06:59:43;95715.31;;;14.03;55.89
43934;BME280;59081;42.706;23.306;2022-11-03T07:02:31;95760.19;;;14.11;56.31
43934;BME280;59081;42.706;23.306;2022-11-03T07:05:01;95857.06;;;15.09;55.57
43934;BME280;59081;42.706;23.306;2022-11-03T07:07:30;95849.94;;;15.20;55.98
43934;BME280;59081;42.706;23.306;2022-11-03T07:09:55;95756.41;;;14.65;55.26
43934;BME280;59081;42.706;23.306;2022-11-03T07:12:21;95868.53;;;15.32;55.80
43934;BME280;59081;42.706;23.306;2022-11-03T07:14:46;95830.84;;;15.22;56.14
43934;BME280;59081;42.706;23.306;2022-11-03T07:17:17;95824.66;;;15.40;55.71
43934;BME280;59081;42.706;23.306;2022-11-03T07:19:46;95770.50;;;15.14;55.15
43934;BME280;59081;42.706;23.306;2022-11-03T07:22:24;95786.59;;;15.28;55.03
43934;BME280;59081;42.706;23.306;2022-11-03T07:24:52;95897.63;;;15.93;55.31
43934;BME280;59081;42.706;23.306;2022-11-03T07:27:27;95890.47;;;16.05;55.17
43934;BME280;59081;42.706;23.306;2022-11-03T07:29:59;95834.59;;;15.81;54.51
43934;BME280;59081;42.706;23.306;2022-11-03T07:32:32;95900.44;;;16.24;54.55
43934;BME280;59081;42.706;23.306;2022-11-03T07:37:45;95884.88;;;16.36;54.36
43934;BME280;59081;42.706;23.306;2022-11-03T07:40:22;95886.84;;;16.66;52.77
43934;BME280;59081;42.706;23.306;2022-11-03T07:42:49;95823.31;;;16.07;52.94
43934;BME280;59081;42.706;23.306;2022-11-03T07:48:25;95775.66;;;16.35;51.65
43934;BME280;59081;42.706;23.306;2022-11-03T07:50:56;95829.53;;;16.69;51.14
43934;BME280;59081;42.706;23.306;2022-11-03T07:53:37;95892.66;;;17.36;50.46
43934;BME280;59081;42.706;23.306;2022-11-03T07:56:25;95821.88;;;16.51;50.79
43934;BME280;59081;42.706;23.306;2022-11-03T07:59:15;95878.88;;;17.23;50.50
43934;BME280;59081;42.706;23.306;2022-11-03T08:01:46;95797.84;;;16.85;49.94
43934;BME280;59081;42.706;23.306;2022-11-03T08:04:18;95759.22;;;16.78;49.86
43934;BME280;59081;42.706;23.306;2022-11-03T08:06:44;95697.22;;;16.50;49.66
43934;BME280;59081;42.706;23.306;2022-11-03T08:09:10;95701.25;;;16.76;48.37
43934;BME280;59081;42.706;23.306;2022-11-03T08:11:35;95687.47;;;16.82;48.24
43934;BME280;59081;42.706;23.306;2022-11-03T08:14:01;95773.47;;;17.58;47.67
43934;BME280;59081;42.706;23.306;2022-11-03T08:16:26;95749.47;;;16.91;47.82
43934;BME280;59081;42.706;23.306;2022-11-03T08:18:52;95749.00;;;16.93;47.91
43934;BME280;59081;42.706;23.306;2022-11-03T08:21:17;95825.19;;;17.32;48.53
43934;BME280;59081;42.706;23.306;2022-11-03T08:23:43;95701.72;;;16.65;47.81
43934;BME280;59081;42.706;23.306;2022-11-03T08:26:09;95820.81;;;17.77;47.60
43934;BME280;59081;42.706;23.306;2022-11-03T08:28:34;95819.84;;;17.98;46.93
43934;BME280;59081;42.706;23.306;2022-11-03T08:31:00;95728.88;;;17.67;45.42
43934;BME280;59081;42.706;23.306;2022-11-03T08:33:30;95723.84;;;17.90;45.02
43934;BME280;59081;42.706;23.306;2022-11-03T08:35:56;95746.19;;;17.81;44.84
43934;BME280;59081;42.706;23.306;2022-11-03T08:38:22;95747.31;;;18.07;44.64
43934;BME280;59081;42.706;23.306;2022-11-03T08:40:47;95764.59;;;18.44;44.19
43934;BME280;59081;42.706;23.306;2022-11-03T08:43:12;95672.69;;;18.26;43.83
43934;BME280;59081;42.706;23.306;2022-11-03T08:45:38;95783.59;;;19.02;43.56
43934;BME280;59081;42.706;23.306;2022-11-03T08:48:04;95804.22;;;19.20;43.81
43934;BME280;59081;42.706;23.306;2022-11-03T08:50:29;95693.41;;;18.72;43.40
43934;BME280;59081;42.706;23.306;2022-11-03T08:52:55;95757.59;;;19.40;42.59
43934;BME280;59081;42.706;23.306;2022-11-03T08:55:20;95771.34;;;19.53;42.68
43934;BME280;59081;42.706;23.306;2022-11-03T08:57:46;95741.97;;;19.93;41.18
43934;BME280;59081;42.706;23.306;2022-11-03T09:00:12;95752.59;;;20.38;40.19
43934;BME280;59081;42.706;23.306;2022-11-03T09:02:38;95806.44;;;21.09;39.15
43934;BME280;59081;42.706;23.306;2022-11-03T09:05:03;95808.50;;;21.29;38.20
43934;BME280;59081;42.706;23.306;2022-11-03T09:07:30;95757.09;;;20.91;38.51
43934;BME280;59081;42.706;23.306;2022-11-03T09:09:56;95784.81;;;21.09;38.31
43934;BME280;59081;42.706;23.306;2022-11-03T09:12:21;95780.97;;;21.27;38.21
43934;BME280;59081;42.706;23.306;2022-11-03T09:14:47;95799.56;;;21.30;38.29
43934;BME280;59081;42.706;23.306;2022-11-03T09:17:12;95795.81;;;21.59;37.60
43934;BME280;59081;42.706;23.306;2022-11-03T09:19:38;95727.16;;;21.49;36.78
43934;BME280;59081;42.706;23.306;2022-11-03T09:22:03;95667.59;;;21.02;37.27
43934;BME280;59081;42.706;23.306;2022-11-03T09:24:29;95693.34;;;21.27;37.14
43934;BME280;59081;42.706;23.306;2022-11-03T09:26:55;95673.44;;;21.25;36.78
43934;BME280;59081;42.706;23.306;2022-11-03T09:29:20;95763.53;;;22.01;36.43
43934;BME280;59081;42.706;23.306;2022-11-03T09:31:46;95755.94;;;22.07;35.76
43934;BME280;59081;42.706;23.306;2022-11-03T09:34:12;95685.13;;;21.80;35.53
43934;BME280;59081;42.706;23.306;2022-11-03T09:36:38;95655.41;;;22.00;34.73
43934;BME280;59081;42.706;23.306;2022-11-03T09:39:03;95746.88;;;22.71;34.80
43934;BME280;59081;42.706;23.306;2022-11-03T09:41:29;95620.63;;;21.49;35.16
43934;BME280;59081;42.706;23.306;2022-11-03T09:43:56;95728.59;;;21.39;36.25
43934;BME280;59081;42.706;23.306;2022-11-03T09:46:23;95663.97;;;20.70;36.56
43934;BME280;59081;42.706;23.306;2022-11-03T09:48:49;95715.41;;;21.45;36.66
43934;BME280;59081;42.706;23.306;2022-11-03T09:51:19;95716.09;;;21.97;35.75
43934;BME280;59081;42.706;23.306;2022-11-03T09:53:46;95786.19;;;22.66;35.26
43934;BME280;59081;42.706;23.306;2022-11-03T09:56:12;95655.19;;;22.03;34.57
43934;BME280;59081;42.706;23.306;2022-11-03T09:58:38;95687.00;;;22.37;34.11
43934;BME280;59081;42.706;23.306;2022-11-03T10:01:04;95757.97;;;22.91;33.55
43934;BME280;59081;42.706;23.306;2022-11-03T10:03:30;95674.78;;;22.40;33.98
43934;BME280;59081;42.706;23.306;2022-11-03T10:05:55;95686.41;;;22.76;33.45
43934;BME280;59081;42.706;23.306;2022-11-03T10:08:27;95748.38;;;23.26;32.99
43934;BME280;59081;42.706;23.306;2022-11-03T10:10:54;95754.44;;;22.97;33.24
43934;BME280;59081;42.706;23.306;2022-11-03T10:15:53;95640.16;;;22.06;33.92
43934;BME280;59081;42.706;23.306;2022-11-03T10:18:18;95591.50;;;21.72;34.12
43934;BME280;59081;42.706;23.306;2022-11-03T10:20:44;95607.44;;;21.55;34.35
43934;BME280;59081;42.706;23.306;2022-11-03T10:23:10;95747.47;;;22.81;33.15
43934;BME280;59081;42.706;23.306;2022-11-03T10:28:16;95667.34;;;21.95;33.29
43934;BME280;59081;42.706;23.306;2022-11-03T10:33:30;95719.91;;;22.79;32.87
43934;BME280;59081;42.706;23.306;2022-11-03T10:35:58;95720.81;;;23.36;32.46
43934;BME280;59081;42.706;23.306;2022-11-03T10:38:32;95615.13;;;22.51;32.45
43934;BME280;59081;42.706;23.306;2022-11-03T10:41:17;95712.81;;;23.01;32.09
43934;BME280;59081;42.706;23.306;2022-11-03T10:43:57;95596.13;;;22.23;32.63
43934;BME280;59081;42.706;23.306;2022-11-03T10:46:23;95565.09;;;22.49;31.99
43934;BME280;59081;42.706;23.306;2022-11-03T10:49:01;95491.06;;;22.69;31.49
43934;BME280;59081;42.706;23.306;2022-11-03T10:51:28;95630.00;;;24.08;30.54
43934;BME280;59081;42.706;23.306;2022-11-03T10:53:55;95543.22;;;23.04;31.06
43934;BME280;59081;42.706;23.306;2022-11-03T10:56:20;95655.91;;;23.73;31.35
43934;BME280;59081;42.706;23.306;2022-11-03T10:58:46;95598.66;;;23.65;31.03
43934;BME280;59081;42.706;23.306;2022-11-03T11:01:12;95587.03;;;24.13;30.37
43934;BME280;59081;42.706;23.306;2022-11-03T11:03:41;95666.19;;;25.19;28.81
43934;BME280;59081;42.706;23.306;2022-11-03T11:06:29;95488.25;;;23.53;29.71
43934;BME280;59081;42.706;23.306;2022-11-03T11:09:03;95586.63;;;24.55;29.14
43934;BME280;59081;42.706;23.306;2022-11-03T11:11:30;95532.63;;;24.51;27.90
43934;BME280;59081;42.706;23.306;2022-11-03T11:16:57;95587.31;;;25.74;26.11
43934;BME280;59081;42.706;23.306;2022-11-03T11:19:26;95615.53;;;25.74;26.35
43934;BME280;59081;42.706;23.306;2022-11-03T11:27:46;95641.03;;;26.41;25.06
43934;BME280;59081;42.706;23.306;2022-11-03T11:35:15;95594.81;;;26.82;24.61
43934;BME280;59081;42.706;23.306;2022-11-03T11:37:41;95569.66;;;27.16;23.80
43934;BME280;59081;42.706;23.306;2022-11-03T11:48:32;95580.97;;;27.48;22.67
43934;BME280;59081;42.706;23.306;2022-11-03T11:50:58;95605.84;;;27.68;22.71
43934;BME280;59081;42.706;23.306;2022-11-03T11:53:25;95550.09;;;27.63;22.21
43934;BME280;59081;42.706;23.306;2022-11-03T11:55:56;95516.72;;;27.88;21.75
43934;BME280;59081;42.706;23.306;2022-11-03T11:58:23;95596.53;;;28.65;21.34
43934;BME280;59081;42.706;23.306;2022-11-03T12:00:59;95590.78;;;28.45;21.51
43934;BME280;59081;42.706;23.306;2022-11-03T12:03:29;95464.13;;;27.79;21.33
43934;BME280;59081;42.706;23.306;2022-11-03T12:05:55;95533.56;;;28.46;20.93
43934;BME280;59081;42.706;23.306;2022-11-03T12:08:26;95535.38;;;28.70;20.70
43934;BME280;59081;42.706;23.306;2022-11-03T12:10:55;95482.38;;;28.65;20.35
43934;BME280;59081;42.706;23.306;2022-11-03T12:13:53;95510.06;;;28.72;20.07
43934;BME280;59081;42.706;23.306;2022-11-03T12:16:31;95524.94;;;29.20;20.06
43934;BME280;59081;42.706;23.306;2022-11-03T12:22:02;95545.16;;;30.07;18.87
43934;BME280;59081;42.706;23.306;2022-11-03T12:26:58;95487.34;;;29.68;19.21
43934;BME280;59081;42.706;23.306;2022-11-03T12:29:24;95446.22;;;29.62;19.25
43934;BME280;59081;42.706;23.306;2022-11-03T12:31:50;95438.97;;;29.32;19.80
43934;BME280;59081;42.706;23.306;2022-11-03T12:34:15;95484.00;;;29.77;19.80
43934;BME280;59081;42.706;23.306;2022-11-03T12:36:42;95497.38;;;29.69;19.62
43934;BME280;59081;42.706;23.306;2022-11-03T12:39:07;95449.75;;;29.26;20.39
43934;BME280;59081;42.706;23.306;2022-11-03T12:41:33;95473.91;;;27.91;21.56
43934;BME280;59081;42.706;23.306;2022-11-03T12:43:58;95465.50;;;27.46;22.11
43934;BME280;59081;42.706;23.306;2022-11-03T12:46:24;95448.84;;;28.22;21.23
43934;BME280;59081;42.706;23.306;2022-11-03T12:48:49;95466.47;;;28.28;21.22
43934;BME280;59081;42.706;23.306;2022-11-03T12:51:17;95453.13;;;28.02;21.33
43934;BME280;59081;42.706;23.306;2022-11-03T12:53:43;95529.19;;;28.45;21.31
43934;BME280;59081;42.706;23.306;2022-11-03T12:56:09;95478.34;;;28.13;21.57
43934;BME280;59081;42.706;23.306;2022-11-03T12:58:36;95493.13;;;28.46;21.32
43934;BME280;59081;42.706;23.306;2022-11-03T13:01:02;95444.34;;;28.39;20.89
43934;BME280;59081;42.706;23.306;2022-11-03T13:03:27;95509.78;;;28.96;20.99
43934;BME280;59081;42.706;23.306;2022-11-03T13:05:53;95399.25;;;28.28;21.18
43934;BME280;59081;42.706;23.306;2022-11-03T13:08:18;95468.50;;;28.88;20.84
43934;BME280;59081;42.706;23.306;2022-11-03T13:10:44;95442.25;;;28.95;20.57
43934;BME280;59081;42.706;23.306;2022-11-03T13:13:09;95468.44;;;29.42;20.10
43934;BME280;59081;42.706;23.306;2022-11-03T13:15:35;95481.00;;;29.34;20.38
43934;BME280;59081;42.706;23.306;2022-11-03T13:18:02;95429.69;;;28.49;20.71
43934;BME280;59081;42.706;23.306;2022-11-03T13:20:27;95394.94;;;28.48;20.56
43934;BME280;59081;42.706;23.306;2022-11-03T13:22:53;95458.47;;;28.87;21.06
43934;BME280;59081;42.706;23.306;2022-11-03T13:25:18;95426.81;;;28.62;21.02
43934;BME280;59081;42.706;23.306;2022-11-03T13:27:44;95429.09;;;28.63;20.80
43934;BME280;59081;42.706;23.306;2022-11-03T13:30:10;95393.53;;;27.94;21.37
43934;BME280;59081;42.706;23.306;2022-11-03T13:32:36;95474.91;;;27.81;22.02
43934;BME280;59081;42.706;23.306;2022-11-03T13:35:02;95444.72;;;27.30;22.08
43934;BME280;59081;42.706;23.306;2022-11-03T13:37:28;95484.53;;;27.46;22.26
43934;BME280;59081;42.706;23.306;2022-11-03T13:39:53;95422.72;;;26.27;23.87
43934;BME280;59081;42.706;23.306;2022-11-03T13:42:19;95452.13;;;26.69;23.00
43934;BME280;59081;42.706;23.306;2022-11-03T13:44:44;95415.69;;;26.34;24.15
43934;BME280;59081;42.706;23.306;2022-11-03T13:47:10;95482.22;;;26.67;23.47
43934;BME280;59081;42.706;23.306;2022-11-03T13:49:35;95414.53;;;26.05;23.57
43934;BME280;59081;42.706;23.306;2022-11-03T13:52:01;95398.38;;;25.87;23.79
43934;BME280;59081;42.706;23.306;2022-11-03T13:54:27;95466.16;;;25.81;24.30
43934;BME280;59081;42.706;23.306;2022-11-03T13:56:52;95465.94;;;25.55;24.78
43934;BME280;59081;42.706;23.306;2022-11-03T13:59:18;95456.41;;;25.33;24.79
43934;BME280;59081;42.706;23.306;2022-11-03T14:01:43;95371.19;;;24.68;25.36
43934;BME280;59081;42.706;23.306;2022-11-03T14:04:09;95448.91;;;24.82;25.30
43934;BME280;59081;42.706;23.306;2022-11-03T14:06:34;95373.56;;;24.28;25.64
43934;BME280;59081;42.706;23.306;2022-11-03T14:09:00;95478.28;;;24.97;26.13
43934;BME280;59081;42.706;23.306;2022-11-03T14:11:25;95458.84;;;24.58;25.79